createdAt,value
2022-12-15T04:02:58.176Z,2.20
2022-12-15T04:05:30.417Z,2.00
2022-12-15T04:07:59.105Z,2.00
2022-12-15T04:10:33.943Z,2.10
2022-12-15T04:13:07.902Z,2.10
2022-12-15T04:15:36.892Z,2.10
2022-12-15T04:18:06.819Z,2.10
2022-12-15T04:20:34.495Z,2.00
2022-12-15T04:23:02.010Z,2.00
2022-12-15T04:25:47.911Z,2.00
2022-12-15T04:28:33.653Z,1.90
2022-12-15T04:31:33.669Z,1.90
2022-12-15T04:34:23.316Z,1.80
2022-12-15T04:37:11.125Z,1.80
2022-12-15T04:40:03.636Z,1.90
2022-12-15T04:42:51.031Z,1.80
2022-12-15T04:45:41.006Z,1.70
2022-12-15T04:48:27.425Z,1.80
2022-12-15T04:51:13.650Z,1.80
2022-12-15T04:54:00.664Z,1.80
2022-12-15T04:56:46.721Z,1.80
2022-12-15T04:59:35.787Z,1.80
2022-12-15T05:02:21.768Z,1.90
2022-12-15T05:05:07.922Z,1.80
2022-12-15T05:07:53.998Z,1.90
2022-12-15T05:10:39.917Z,1.90
2022-12-15T05:13:26.472Z,1.90
2022-12-15T05:16:12.984Z,1.90
2022-12-15T05:18:58.948Z,1.80
2022-12-15T05:21:44.887Z,1.80
2022-12-15T05:24:30.808Z,1.80
2022-12-15T05:27:16.580Z,1.80
2022-12-15T05:30:02.523Z,1.70
2022-12-15T05:32:32.930Z,1.80
2022-12-15T05:35:01.352Z,1.80
2022-12-15T05:37:28.894Z,1.70
2022-12-15T05:39:56.165Z,1.80
2022-12-15T05:42:23.395Z,1.70
2022-12-15T05:44:50.621Z,1.70
2022-12-15T05:47:17.803Z,1.80
2022-12-15T05:49:45.021Z,1.80
2022-12-15T05:52:12.365Z,1.70
2022-12-15T05:54:39.577Z,1.70
2022-12-15T05:57:06.874Z,1.80
2022-12-15T05:59:34.117Z,1.70
2022-12-15T06:02:01.426Z,1.70
2022-12-15T06:04:28.792Z,1.70
2022-12-15T06:06:55.987Z,1.70
2022-12-15T06:09:23.221Z,1.70
2022-12-15T06:11:50.457Z,1.70
2022-12-15T06:14:17.695Z,1.70
2022-12-15T06:16:50.113Z,1.70
2022-12-15T06:19:19.980Z,1.70
2022-12-15T06:21:47.644Z,1.60
2022-12-15T06:24:15.166Z,1.60
2022-12-15T06:26:42.514Z,1.60
2022-12-15T06:29:12.524Z,1.70
2022-12-15T06:31:41.096Z,1.60
2022-12-15T06:34:12.587Z,1.60
2022-12-15T06:36:40.306Z,1.70
2022-12-15T06:39:11.588Z,1.70
2022-12-15T06:41:39.694Z,1.60
2022-12-15T06:44:07.276Z,1.70
2022-12-15T06:46:35.194Z,1.60
2022-12-15T06:49:02.901Z,1.60
2022-12-15T06:51:30.291Z,1.60
2022-12-15T06:53:57.647Z,1.60
2022-12-15T06:56:32.648Z,1.60
2022-12-15T06:59:01.868Z,1.50
2022-12-15T07:01:30.029Z,1.50
2022-12-15T07:04:00.152Z,1.50
2022-12-15T07:06:29.584Z,1.40
2022-12-15T07:08:56.971Z,1.40
2022-12-15T07:11:24.473Z,1.40
2022-12-15T07:13:53.254Z,1.40
2022-12-15T07:16:22.301Z,1.30
2022-12-15T07:18:49.891Z,1.30
2022-12-15T07:21:17.420Z,1.30
2022-12-15T07:23:54.646Z,1.30
2022-12-15T07:26:23.746Z,1.30
2022-12-15T07:28:51.284Z,1.30
2022-12-15T07:31:18.654Z,1.30
2022-12-15T07:33:48.349Z,1.20
2022-12-15T07:36:16.164Z,1.20
2022-12-15T07:38:49.864Z,1.30
2022-12-15T07:41:19.451Z,1.30
2022-12-15T07:43:47.953Z,1.30
2022-12-15T07:46:16.290Z,1.40
2022-12-15T07:48:43.802Z,1.30
2022-12-15T07:51:18.884Z,1.40
2022-12-15T07:53:47.782Z,1.40
2022-12-15T07:56:15.517Z,1.30
2022-12-15T07:58:42.894Z,1.30
2022-12-15T08:01:13.424Z,1.30
2022-12-15T08:03:41.430Z,1.30
2022-12-15T08:06:11.703Z,1.30
2022-12-15T08:08:39.559Z,1.40
2022-12-15T08:11:08.820Z,1.40
2022-12-15T08:16:24.018Z,1.40
2022-12-15T08:18:51.472Z,1.40
2022-12-15T08:21:18.761Z,1.50
2022-12-15T08:23:46.134Z,1.50
2022-12-15T08:26:16.088Z,1.50
2022-12-15T08:28:43.972Z,1.50
2022-12-15T08:31:17.112Z,1.50
2022-12-15T08:33:45.568Z,1.60
2022-12-15T08:36:15.023Z,1.60
2022-12-15T08:38:45.587Z,1.60
2022-12-15T08:41:19.538Z,1.70
2022-12-15T08:43:49.344Z,1.70
2022-12-15T08:46:19.154Z,1.70
2022-12-15T08:48:46.914Z,1.60
2022-12-15T08:51:14.704Z,1.60
2022-12-15T08:53:42.197Z,1.70
2022-12-15T08:56:13.070Z,1.70
2022-12-15T08:58:40.805Z,1.70
2022-12-15T09:01:23.420Z,1.70
2022-12-15T09:03:55.743Z,1.70
2022-12-15T09:06:30.143Z,1.70
2022-12-15T09:08:59.207Z,1.70
2022-12-15T09:11:27.529Z,1.80
2022-12-15T09:13:54.827Z,1.80
2022-12-15T09:16:22.706Z,1.90
2022-12-15T09:18:53.176Z,1.90
2022-12-15T09:21:26.268Z,1.80
2022-12-15T09:23:55.806Z,1.80
2022-12-15T09:26:23.777Z,1.70
2022-12-15T09:28:51.426Z,1.80
2022-12-15T09:31:22.193Z,1.80
2022-12-15T09:33:51.529Z,1.90
2022-12-15T09:36:20.337Z,1.80
2022-12-15T09:38:47.952Z,1.80
2022-12-15T09:41:15.220Z,2.00
2022-12-15T09:44:04.447Z,1.90
2022-12-15T09:46:37.610Z,2.10
2022-12-15T09:49:15.669Z,2.20
2022-12-15T09:51:53.491Z,2.40
2022-12-15T09:54:22.892Z,2.40
2022-12-15T09:56:57.906Z,2.50
2022-12-15T09:59:37.305Z,2.60
2022-12-15T10:02:22.633Z,2.70
2022-12-15T10:05:13.027Z,2.60
2022-12-15T10:07:46.259Z,2.60
2022-12-15T10:10:17.973Z,2.60
2022-12-15T10:12:57.665Z,2.70
2022-12-15T10:15:56.518Z,2.70
2022-12-15T10:18:31.451Z,2.70
2022-12-15T10:21:01.464Z,2.70
2022-12-15T10:23:29.507Z,2.70
2022-12-15T10:26:02.194Z,2.90
2022-12-15T10:29:08.225Z,2.90
2022-12-15T10:31:51.347Z,2.90
2022-12-15T10:34:28.844Z,2.90
2022-12-15T10:36:56.979Z,2.90
2022-12-15T10:39:36.228Z,3.10
2022-12-15T10:42:26.771Z,3.30
2022-12-15T10:44:58.737Z,3.20
2022-12-15T10:47:28.880Z,3.20
2022-12-15T10:50:12.576Z,3.20
2022-12-15T10:52:39.800Z,3.30
2022-12-15T10:55:28.540Z,3.50
2022-12-15T10:58:00.815Z,3.30
2022-12-15T11:00:30.447Z,3.20
2022-12-15T11:02:58.624Z,3.30
2022-12-15T11:05:27.089Z,3.30
2022-12-15T11:08:16.312Z,3.40
2022-12-15T11:11:16.159Z,3.40
2022-12-15T11:14:04.907Z,3.40
2022-12-15T11:16:32.268Z,3.60
2022-12-15T11:19:11.073Z,3.60
2022-12-15T11:21:53.421Z,3.60
2022-12-15T11:24:47.195Z,3.70
2022-12-15T11:27:40.273Z,3.80
2022-12-15T11:30:15.516Z,3.70
2022-12-15T11:32:49.036Z,3.70
2022-12-15T11:35:39.162Z,3.70
2022-12-15T11:38:34.696Z,3.80
2022-12-15T11:41:29.539Z,3.70
2022-12-15T11:44:11.655Z,3.70
2022-12-15T11:46:51.415Z,3.80
2022-12-15T11:49:41.186Z,3.80
2022-12-15T11:52:32.207Z,3.80
2022-12-15T11:55:18.040Z,3.80
2022-12-15T11:58:02.299Z,3.80
2022-12-15T12:00:35.336Z,3.70
2022-12-15T12:03:24.006Z,3.80
2022-12-15T12:06:15.511Z,3.80
2022-12-15T12:08:54.883Z,3.80
2022-12-15T12:11:42.778Z,3.70
2022-12-15T12:14:34.806Z,3.80
2022-12-15T12:17:11.243Z,3.70
2022-12-15T12:19:43.993Z,3.60
2022-12-15T12:22:20.639Z,3.80
2022-12-15T12:24:55.537Z,3.70
2022-12-15T12:27:40.874Z,3.70
2022-12-15T12:30:17.632Z,3.80
2022-12-15T12:32:58.540Z,4.00
2022-12-15T12:35:38.155Z,4.00
2022-12-15T12:38:13.102Z,3.90
2022-12-15T12:40:53.675Z,3.90
2022-12-15T12:43:35.255Z,3.90
2022-12-15T12:46:34.407Z,3.90
2022-12-15T12:49:07.633Z,3.70
2022-12-15T12:51:36.325Z,3.60
2022-12-15T12:54:29.951Z,3.50
2022-12-15T12:56:57.178Z,3.60
2022-12-15T12:59:30.211Z,3.60
2022-12-15T13:01:58.908Z,3.50
2022-12-15T13:04:29.061Z,3.40
2022-12-15T13:07:01.058Z,3.40
2022-12-15T13:10:03.124Z,3.30
2022-12-15T13:12:53.218Z,3.10
2022-12-15T13:15:50.799Z,3.10
2022-12-15T13:18:22.822Z,3.10
2022-12-15T13:20:54.391Z,3.00
2022-12-15T13:23:21.595Z,3.00
2022-12-15T13:25:57.746Z,3.00
2022-12-15T13:28:29.411Z,2.90
2022-12-15T13:31:16.810Z,2.80
2022-12-15T13:33:50.321Z,2.80
2022-12-15T13:36:42.143Z,2.80
2022-12-15T13:39:14.802Z,2.80
2022-12-15T13:42:07.558Z,2.80
2022-12-15T13:44:38.898Z,2.80
2022-12-15T13:47:28.354Z,2.70
2022-12-15T13:50:01.812Z,2.70
2022-12-15T13:53:16.692Z,2.70
2022-12-15T13:58:16.507Z,2.50
2022-12-15T14:00:56.717Z,2.50
2022-12-15T14:03:24.925Z,2.50
2022-12-15T14:08:45.332Z,2.50
2022-12-15T14:11:51.495Z,2.50
2022-12-15T14:14:22.272Z,2.50
2022-12-15T14:16:59.348Z,2.50
2022-12-15T14:19:38.415Z,2.50
2022-12-15T14:22:29.190Z,2.40
2022-12-15T14:25:13.331Z,2.40
2022-12-15T14:27:40.851Z,2.30
2022-12-15T14:30:23.493Z,2.40
2022-12-15T14:32:57.957Z,2.30
2022-12-15T14:35:31.167Z,2.50
2022-12-15T14:38:01.411Z,2.50
2022-12-15T14:40:29.800Z,2.40
2022-12-15T14:42:57.588Z,2.40
2022-12-15T14:45:30.989Z,2.40
2022-12-15T14:50:49.891Z,2.40
2022-12-15T14:53:21.241Z,2.40
2022-12-15T14:55:48.915Z,2.40
2022-12-15T14:58:42.331Z,2.30
2022-12-15T15:01:57.870Z,2.30
2022-12-15T15:03:05.769Z,2.50
2022-12-15T15:03:09.716Z,2.70
2022-12-15T15:04:30.616Z,2.20
2022-12-15T15:07:00.537Z,2.30
2022-12-15T15:09:30.397Z,2.20
2022-12-15T15:12:02.240Z,2.20
2022-12-15T15:14:34.269Z,2.20
2022-12-15T15:17:09.646Z,2.20
2022-12-15T15:19:40.124Z,2.30
2022-12-15T15:22:25.036Z,2.30
2022-12-15T15:24:52.668Z,2.40
2022-12-15T15:27:25.899Z,2.40
2022-12-15T15:30:06.040Z,2.30
2022-12-15T15:32:48.648Z,2.30
2022-12-15T15:35:15.888Z,2.30
2022-12-15T15:37:43.127Z,2.30
2022-12-15T15:40:13.208Z,2.40
2022-12-15T15:42:40.413Z,2.30
2022-12-15T15:45:13.754Z,2.30
2022-12-15T15:47:45.669Z,2.30
2022-12-15T15:50:15.782Z,2.30
2022-12-15T15:52:44.294Z,2.20
2022-12-15T15:55:18.064Z,2.20
2022-12-15T15:57:45.417Z,2.30
2022-12-15T16:00:24.808Z,2.20
2022-12-15T16:02:52.678Z,2.20
2022-12-15T16:05:21.013Z,2.20
2022-12-15T16:07:48.848Z,2.30
2022-12-15T16:10:18.600Z,2.10
2022-12-15T16:12:48.263Z,2.20
2022-12-15T16:15:23.073Z,2.30
2022-12-15T16:17:50.588Z,2.20
2022-12-15T16:20:19.683Z,2.20
2022-12-15T16:22:57.567Z,2.20
2022-12-15T16:25:50.864Z,2.20
2022-12-15T16:28:23.650Z,2.20
2022-12-15T16:30:51.696Z,2.20
2022-12-15T16:33:19.215Z,2.20
2022-12-15T16:35:52.285Z,2.20
2022-12-15T16:38:33.581Z,2.20
2022-12-15T16:41:14.819Z,2.20
2022-12-15T16:43:47.686Z,2.20
2022-12-15T16:46:15.992Z,2.10
2022-12-15T16:48:43.538Z,2.20
2022-12-15T16:51:25.111Z,2.20
2022-12-15T16:53:52.311Z,2.10
2022-12-15T16:56:19.656Z,2.20
2022-12-15T16:58:48.944Z,2.20
2022-12-15T17:01:20.240Z,2.20
2022-12-15T17:03:47.537Z,2.30
2022-12-15T17:06:17.580Z,2.30
2022-12-15T17:08:49.334Z,2.40
2022-12-15T17:11:22.464Z,2.40
2022-12-15T17:13:51.496Z,2.40
2022-12-15T17:16:21.198Z,2.40
2022-12-15T17:18:49.936Z,2.40
2022-12-15T17:21:18.663Z,2.50
2022-12-15T17:23:49.277Z,2.50
2022-12-15T17:26:30.077Z,2.40
2022-12-15T17:29:21.834Z,2.50
2022-12-15T17:31:49.239Z,2.50
2022-12-15T17:34:30.234Z,2.40
2022-12-15T17:37:03.146Z,2.50
2022-12-15T17:39:31.063Z,2.40
2022-12-15T17:42:00.523Z,2.40
2022-12-15T17:44:36.322Z,2.40
2022-12-15T17:47:06.953Z,2.50
2022-12-15T17:49:37.773Z,2.30
2022-12-15T17:52:24.481Z,2.30
2022-12-15T17:54:52.161Z,2.20
2022-12-15T17:57:19.387Z,2.20
2022-12-15T17:59:46.674Z,2.30
2022-12-15T18:02:14.444Z,2.10
2022-12-15T18:04:42.771Z,2.20
2022-12-15T18:07:21.737Z,2.20
2022-12-15T18:09:51.000Z,2.20
2022-12-15T18:12:24.456Z,2.20
2022-12-15T18:14:52.654Z,2.20
2022-12-15T18:17:20.050Z,2.20
2022-12-15T18:19:47.431Z,2.40
2022-12-15T18:22:23.576Z,2.40
2022-12-15T18:24:53.671Z,2.30
2022-12-15T18:27:24.387Z,2.30
2022-12-15T18:29:52.065Z,2.20
2022-12-15T18:32:21.443Z,2.20
2022-12-15T18:34:48.796Z,2.20
2022-12-15T18:37:20.797Z,2.10
2022-12-15T18:39:48.381Z,2.10
2022-12-15T18:42:18.177Z,2.10
2022-12-15T18:44:50.568Z,2.10
2022-12-15T18:47:20.480Z,2.00
2022-12-15T18:49:47.831Z,2.00
2022-12-15T18:52:18.701Z,2.00
2022-12-15T18:54:48.660Z,2.00
2022-12-15T18:57:30.297Z,1.90
2022-12-15T19:00:14.848Z,1.90
2022-12-15T19:02:42.723Z,1.80
2022-12-15T19:05:29.250Z,1.80
2022-12-15T19:08:01.565Z,1.70
2022-12-15T19:10:31.993Z,1.80
2022-12-15T19:12:59.665Z,1.80
2022-12-15T19:15:27.503Z,1.80
2022-12-15T19:18:13.233Z,1.70
2022-12-15T19:20:58.942Z,1.70
2022-12-15T19:23:26.157Z,1.70
2022-12-15T19:25:54.144Z,1.70
2022-12-15T19:28:24.565Z,1.80
2022-12-15T19:30:52.208Z,1.80
2022-12-15T19:33:19.907Z,1.80
2022-12-15T19:35:51.168Z,1.80
2022-12-15T19:38:23.135Z,1.80
2022-12-15T19:40:53.404Z,1.80
2022-12-15T19:43:22.984Z,1.80
2022-12-15T19:45:51.966Z,1.80
2022-12-15T19:48:23.708Z,1.80
2022-12-15T19:50:52.395Z,1.70
2022-12-15T19:53:28.284Z,1.70
2022-12-15T19:55:58.453Z,1.70
2022-12-15T19:58:32.394Z,1.70
2022-12-15T20:01:04.263Z,1.80
2022-12-15T20:03:32.708Z,1.80
2022-12-15T20:06:01.690Z,1.80
2022-12-15T20:08:34.124Z,1.70
2022-12-15T20:11:01.452Z,1.60
2022-12-15T20:13:29.378Z,1.60
2022-12-15T20:15:56.928Z,1.70
2022-12-15T20:18:24.150Z,1.80
2022-12-15T20:20:51.345Z,1.90
2022-12-15T20:23:29.448Z,1.90
2022-12-15T20:25:57.578Z,1.90
2022-12-15T20:28:29.646Z,1.90
2022-12-15T20:30:57.858Z,2.00
2022-12-15T20:33:25.503Z,2.00
2022-12-15T20:35:52.879Z,1.90
2022-12-15T20:38:31.733Z,2.00
2022-12-15T20:41:00.423Z,1.90
2022-12-15T20:43:34.780Z,1.90
2022-12-15T20:46:12.584Z,1.90
2022-12-15T20:48:40.031Z,1.90
2022-12-15T20:51:11.626Z,1.80
2022-12-15T20:53:39.207Z,1.80
2022-12-15T20:56:07.032Z,1.90
2022-12-15T20:58:40.320Z,1.90
2022-12-15T21:01:21.619Z,1.90
2022-12-15T21:03:51.822Z,1.80
2022-12-15T21:06:19.767Z,1.80
2022-12-15T21:08:47.032Z,1.70
2022-12-15T21:11:18.764Z,1.70
2022-12-15T21:13:48.016Z,1.70
2022-12-15T21:16:20.977Z,1.70
2022-12-15T21:19:18.667Z,1.70
2022-12-15T21:21:39.522Z,1.60
2022-12-15T21:24:22.948Z,1.70
2022-12-15T21:26:51.271Z,1.60
2022-12-15T21:29:24.829Z,1.60
2022-12-15T21:31:52.272Z,1.60
2022-12-15T21:34:19.714Z,1.60
2022-12-15T21:36:51.735Z,1.50
2022-12-15T21:39:32.965Z,1.60
2022-12-15T21:42:06.921Z,1.50
2022-12-15T21:44:35.443Z,1.50
2022-12-15T21:47:05.891Z,1.50
2022-12-15T21:49:34.187Z,1.50
2022-12-15T21:52:01.512Z,1.50
2022-12-15T21:54:34.407Z,1.50
2022-12-15T21:57:02.808Z,1.50
2022-12-15T21:59:32.568Z,1.60
